• Join FlightAware (Why Join?)
  • Login
  • US Flag 
09:43AM EDT


 

Airport Tracker/Info


-or-


 

Live Flight TrackerFlight Track Log ✈ AWE3794 ✈ 18-Apr-2013 ✈ KPHL - KCLE

Flight Track Log - Related Links

Times and Time Zones

All times are in EDT time to prevent confusion due to time zone crossing. See the AWE3794 flight status page for this flight to view local times or setup timezone preferences in your user account.

Time Position Orientation Groundspeed Altitude Reporting Facility
EDT Latitude Longitude Course Direction KTS MPH feet Rate Location/Type
07:40AM 39.8833 -75.2000 311° West 149 171 800  Level Philadelphia TRACON
07:40AM 39.8947 -75.1792 55° Northeast 161 185 2,000 2,340 Climbing FAA TRACON SMA TRACON (SMA)
07:41AM 39.9058 -75.1575 56° Northeast 190 219 2,800 2,220 Climbing FAA TRACON SMA TRACON (SMA)
07:41AM 39.9178 -75.1400 48° Northeast 226 260 3,500 2,220 Climbing FAA TRACON SMA TRACON (SMA)
07:41AM 39.9436 -75.1347 North 251 289 4,300 2,220 Climbing FAA TRACON SMA TRACON (SMA)
07:42AM 40.0658 -75.4157 323° Northwest  Level FlightAware Approximate
07:42AM 39.9664 -75.1364 357° North 270 311 5,000  Level FAA TRACON SMA TRACON (SMA)
07:42AM 39.9894 -75.1383 356° North 277 319 5,800 2,700 Climbing FAA TRACON SMA TRACON (SMA)
07:42AM 40.0144 -75.1400 357° North 283 326 6,800 3,420 Climbing FAA TRACON SMA TRACON (SMA)
07:43AM 40.1336 -75.4835 323° Northwest  Level FlightAware Approximate
07:43AM 40.0444 -75.1417 358° North 283 326 8,100  Level FAA TRACON SMA TRACON (SMA)
07:43AM 40.0672 -75.1486 347° North 293 337 8,700 2,520 Climbing FAA TRACON SMA TRACON (SMA)
07:43AM 40.0883 -75.1747 317° Northwest 278 320 9,800 1,920 Climbing FAA TRACON SMA TRACON (SMA)
07:44AM 40.2018 -75.5500 North  Level FlightAware Approximate
07:44AM 40.0981 -75.2036 294° West 310 357 10,000  Level FAA TRACON SMA TRACON (SMA)
07:44AM 40.1081 -75.2339 293° West 305 351 10,000  Level FAA TRACON SMA TRACON (SMA)
07:44AM 40.1233 -75.2733 297° West 318 366 10,000 600 Level FAA TRACON SMA TRACON (SMA)
07:45AM 40.2631 -75.6195 311° West  Level FlightAware Approximate
07:45AM 40.1344 -75.3069 293° West 317 365 10,400  Level FAA TRACON SMA TRACON (SMA)
07:45AM 40.1467 -75.3417 295° West 317 365 11,100 2,100 Climbing FAA TRACON SMA TRACON (SMA)
07:45AM 40.1600 -75.3800 294° West 324 373 11,800 1,800 Climbing FAA TRACON SMA TRACON (SMA)
07:46AM 40.1717 -75.4142 294° West 332 382 12,300 1,620 Climbing FAA TRACON SMA TRACON (SMA)
07:46AM 40.1856 -75.4519 296° West 336 387 12,900 1,020 Climbing FAA TRACON SMA TRACON (SMA)
07:46AM 40.1992 -75.4925 294° West 344 396 13,000 120 Climbing FAA TRACON SMA TRACON (SMA)
07:47AM 40.2119 -75.5275 296° West 350 403 13,000  Level FAA TRACON SMA TRACON (SMA)
07:47AM 40.2264 -75.5633 298° West 354 407 13,000  Level FAA TRACON SMA TRACON (SMA)
07:47AM 40.2503 -75.6025 309° West 361 415 13,000  Level FAA TRACON SMA TRACON (SMA)
07:48AM 40.2703 -75.6328 311° West 359 413 13,000 300 Level FAA TRACON SMA TRACON (SMA)
07:48AM 40.2903 -75.6625 311° West 357 411 13,200 1,200 Climbing FAA TRACON SMA TRACON (SMA)
07:48AM 40.3156 -75.7003 311° West 357 411 13,800 1,620 Climbing FAA TRACON SMA TRACON (SMA)
07:49AM 40.3358 -75.7314 311° West 362 417 14,300 1,320 Climbing FAA TRACON SMA TRACON (SMA)
07:49AM 40.3564 -75.7625 311° West 365 420 14,700 1,200 Climbing FAA TRACON SMA TRACON (SMA)
07:49AM 40.3717 -75.7861 310° West 367 422 15,100 540 Climbing FAA TRACON SMA TRACON (SMA)
07:50AM 40.3717 -75.7861 194° South 367 422 15,100 1,560 Level FAA TRACON SMA TRACON (SMA)
07:50AM 40.4206 -75.8608 311° West 372 428 16,200 1,920 Climbing New York Center
07:51AM 40.4589 -75.9864 292° West 372 428 17,700 1,380 Climbing New York Center
07:52AM 40.4858 -76.1303 284° West 367 422 19,000 1,140 Climbing New York Center
07:53AM 40.5075 -76.2467 284° West 367 422 20,000 900 Climbing New York Center
07:54AM 40.5325 -76.3797 284° West 367 422 20,900 900 Climbing New York Center
07:55AM 40.5617 -76.5133 286° West 377 434 21,800 780 Climbing New York Center
07:56AM 40.5883 -76.6494 285° West 382 440 22,600 600 Climbing New York Center
07:57AM 40.6167 -76.7886 285° West 382 440 23,100 540 Climbing New York Center
07:58AM 40.6447 -76.9333 284° West 392 451 23,700 2,460 Climbing New York Center
07:59AM 40.6744 -77.0783 285° West 402 463 28,000 660 Climbing New York Center
08:00AM 40.7056 -77.2347 285° West 392 451 25,100 -900 Descending New York Center
08:01AM 40.7319 -77.3631 285° West 392 451 26,300 1,320 Climbing New York Center
08:02AM 40.7619 -77.4975 286° West 392 451 27,800 840 Climbing New York Center
08:03AM 40.7853 -77.6342 283° West 387 445 28,000 60 Climbing New York Center
08:05AM 40.8386 -77.9100 284° West 389 448 28,000  Level Cleveland Center
08:06AM 40.8647 -78.0517 284° West 394 453 28,000  Level Cleveland Center
08:07AM 40.8928 -78.1989 284° West 399 459 28,000  Level Cleveland Center
08:08AM 40.9208 -78.3464 284° West 411 473 28,000  Level Cleveland Center
08:09AM 40.9508 -78.4936 285° West 411 473 28,000  Level Cleveland Center
08:10AM 40.9783 -78.6386 284° West 411 473 28,000  Level Cleveland Center
08:11AM 41.0119 -78.7808 287° West 411 473 28,000  Level Cleveland Center
08:12AM 41.0433 -78.9286 286° West 411 473 28,000  Level Cleveland Center
08:13AM 41.0744 -79.0708 286° West 411 473 28,000  Level Cleveland Center
08:14AM 41.1075 -79.2192 287° West 416 479 28,000  Level Cleveland Center
08:15AM 41.1406 -79.3617 287° West 416 479 28,000  Level Cleveland Center
08:16AM 41.1711 -79.5047 286° West 411 473 28,000  Level Cleveland Center
08:17AM 41.2036 -79.6475 287° West 411 473 28,000 -480 Level Cleveland Center
08:18AM 41.2275 -79.7825 283° West 411 473 27,100 -1,080 Descending Cleveland Center
08:19AM 41.2619 -79.9339 287° West 416 479 25,900 -1,260 Descending Cleveland Center
08:20AM 41.2961 -80.0856 287° West 416 479 24,600 -1,560 Descending Cleveland Center
08:21AM 41.3278 -80.2319 286° West 416 479 22,800 -1,920 Descending Cleveland Center
08:22AM 41.3575 -80.3867 284° West 410 472 20,800 -2,040 Descending Cleveland Center
08:23AM 41.3847 -80.5139 286° West 384 442 18,800 -2,100 Descending Cleveland Center
08:24AM 41.4097 -80.6386 285° West 358 412 16,700 -2,100 Descending Cleveland Center
08:25AM 41.4344 -80.7603 285° West 347 399 14,700 -1,860 Descending Cleveland Center
08:26AM 41.4553 -80.8547 286° West 326 375 13,300 -1,560 Descending Cleveland Center
08:26AM 41.4758 -80.9489 286° West 318 366 12,200 -1,320 Descending Cleveland Center
08:27AM 41.4797 -80.9878 278° West 329 379 11,800 -1,200 Descending Cleveland Center
08:27AM 41.4961 -81.0628 286° West 310 357 11,000 -1,200 Descending Cleveland Center
08:28AM 41.5061 -81.1681 277° West 270 311 9,800 -1,200 Descending Cleveland Center
08:29AM 41.5061 -81.1958 270° West 288 331 9,400 -1,200 Descending Cleveland Center
08:29AM 41.5014 -81.2625 265° West 244 281 8,600 -1,200 Descending Cleveland Center
08:30AM 41.5014 -81.2872 270° West 263 303 8,200 -1,320 Descending Cleveland Center
08:30AM 41.5008 -81.3539 269° West 250 288 7,300 -1,320 Descending Cleveland Center
08:31AM 41.4986 -81.3789 263° West 251 289 6,900 -1,320 Descending Cleveland Center
08:31AM 41.4961 -81.4453 267° West 248 285 6,000 -1,140 Descending Cleveland Center
08:32AM 41.4958 -81.4619 269° West 251 289 5,800 -780 Descending Cleveland Center
08:33AM 41.4931 -81.5533 268° West 251 289 5,000 -900 Descending Cleveland Center
08:34AM 41.4903 -81.6447 268° West 251 289 4,000 -1,140 Descending Cleveland Center
08:35AM 41.4875 -81.7169 267° West 216 249 3,000 -900 Descending Cleveland Center
08:36AM 41.4597 -81.7800 240° Southwest 122 140 2,200 -660 Descending Cleveland Center